createdAt,value
2022-09-23T00:00:35.977Z,94561.75
2022-09-23T00:03:02.465Z,94561.00
2022-09-23T00:05:30.387Z,94563.56
2022-09-23T00:07:57.766Z,94564.38
2022-09-23T00:10:28.043Z,94564.41
2022-09-23T00:12:55.854Z,94549.38
2022-09-23T00:15:23.083Z,94549.38
2022-09-23T00:17:49.399Z,94557.66
2022-09-23T00:20:15.741Z,94554.53
2022-09-23T00:22:42.077Z,94550.38
2022-09-23T00:25:09.552Z,94553.75
2022-09-23T00:27:36.591Z,94552.47
2022-09-23T00:30:05.916Z,94549.38
2022-09-23T00:32:32.256Z,94543.16
2022-09-23T00:34:58.738Z,94544.72
2022-09-23T00:37:25.260Z,94548.84
2022-09-23T00:39:51.604Z,94541.06
2022-09-23T00:42:21.516Z,94553.00
2022-09-23T00:44:52.494Z,94542.09
2022-09-23T00:47:30.894Z,94548.84
2022-09-23T00:50:09.165Z,94530.72
2022-09-23T00:52:36.637Z,94538.25
2022-09-23T00:55:09.339Z,94530.19
2022-09-23T00:57:38.245Z,94529.94
2022-09-23T01:00:06.850Z,94527.59
2022-09-23T01:02:33.883Z,94536.16
2022-09-23T01:05:03.189Z,94523.47
2022-09-23T01:07:30.076Z,94524.50
2022-09-23T01:09:59.189Z,94528.13
2022-09-23T01:12:49.763Z,94530.19
2022-09-23T01:15:38.028Z,94525.53
2022-09-23T01:18:43.359Z,94525.78
2022-09-23T01:21:24.868Z,94528.13
2022-09-23T01:24:06.592Z,94519.84
2022-09-23T01:26:58.992Z,94515.69
2022-09-23T01:30:10.697Z,94515.19
2022-09-23T01:32:52.345Z,94509.72
2022-09-23T01:35:30.343Z,94517.25
2022-09-23T01:38:15.181Z,94517.25
2022-09-23T01:40:51.981Z,94518.25
2022-09-23T01:43:35.554Z,94519.84
2022-09-23T01:46:07.376Z,94515.41
2022-09-23T01:48:46.528Z,94512.31
2022-09-23T01:51:23.836Z,94507.91
2022-09-23T01:54:18.261Z,94500.38
2022-09-23T01:56:58.689Z,94508.41
2022-09-23T01:59:35.687Z,94506.84
2022-09-23T02:02:15.281Z,94504.25
2022-09-23T02:04:47.981Z,94496.75
2022-09-23T02:07:22.332Z,94498.31
2022-09-23T02:09:57.354Z,94499.59
2022-09-23T02:12:29.309Z,94497.00
2022-09-23T02:15:04.146Z,94506.34
2022-09-23T02:17:38.330Z,94504.75
2022-09-23T02:20:06.825Z,94499.81
2022-09-23T02:22:40.549Z,94509.13
2022-09-23T02:25:09.713Z,94504.94
2022-09-23T02:27:59.658Z,94504.41
2022-09-23T02:30:36.298Z,94506.47
2022-09-23T02:33:11.696Z,94494.59
2022-09-23T02:36:05.513Z,94489.16
2022-09-23T02:38:36.443Z,94495.63
2022-09-23T02:41:29.918Z,94494.34
2022-09-23T02:44:06.194Z,94492.53
2022-09-23T02:46:34.089Z,94497.44
2022-09-23T02:49:15.101Z,94489.16
2022-09-23T02:51:41.611Z,94492.53
2022-09-23T02:54:14.912Z,94491.97
2022-09-23T02:56:41.702Z,94489.66
2022-09-23T02:59:09.618Z,94480.31
2022-09-23T03:02:04.905Z,94491.22
2022-09-23T03:05:00.127Z,94485.50
2022-09-23T03:07:42.676Z,94484.50
2022-09-23T03:10:22.895Z,94475.72
2022-09-23T03:13:28.671Z,94481.91
2022-09-23T03:16:10.407Z,94474.66
2022-09-23T03:18:52.211Z,94474.13
2022-09-23T03:21:41.022Z,94480.84
2022-09-23T03:24:10.751Z,94475.66
2022-09-23T03:26:40.144Z,94475.41
2022-09-23T03:29:10.096Z,94475.63
2022-09-23T03:31:39.949Z,94476.66
2022-09-23T03:34:16.331Z,94479.25
2022-09-23T03:36:57.342Z,94472.03
2022-09-23T03:39:31.329Z,94469.69
2022-09-23T03:42:03.354Z,94474.63
2022-09-23T03:44:30.166Z,94468.41
2022-09-23T03:47:02.258Z,94467.38
2022-09-23T03:49:33.304Z,94468.66
2022-09-23T03:52:00.140Z,94468.38
2022-09-23T03:54:27.893Z,94464.47
2022-09-23T03:56:57.546Z,94461.34
2022-09-23T03:59:24.810Z,94456.13
2022-09-23T04:01:51.712Z,94460.53
2022-09-23T04:04:18.280Z,94462.56
2022-09-23T04:06:44.966Z,94462.56
2022-09-23T04:09:11.473Z,94457.88
2022-09-23T04:11:38.051Z,94456.84
2022-09-23T04:14:05.510Z,94453.19
2022-09-23T04:16:32.094Z,94450.34
2022-09-23T04:18:58.747Z,94445.16
2022-09-23T04:21:25.373Z,94449.56
2022-09-23T04:23:51.990Z,94442.06
2022-09-23T04:26:19.068Z,94450.06
2022-09-23T04:28:45.389Z,94453.16
2022-09-23T04:31:11.833Z,94443.06
2022-09-23T04:33:38.265Z,94445.66
2022-09-23T04:36:04.733Z,94446.44
2022-09-23T04:38:31.265Z,94443.06
2022-09-23T04:40:57.711Z,94443.31
2022-09-23T04:43:24.300Z,94446.44
2022-09-23T04:46:01.506Z,94443.84
2022-09-23T04:48:29.026Z,94439.47
2022-09-23T04:51:03.099Z,94441.25
2022-09-23T04:53:29.538Z,94443.84
2022-09-23T04:56:02.127Z,94436.84
2022-09-23T04:58:29.038Z,94451.59
2022-09-23T05:00:55.871Z,94441.78
2022-09-23T05:03:23.824Z,94454.69
2022-09-23T05:05:50.793Z,94443.59
2022-09-23T05:08:17.246Z,94447.00
2022-09-23T05:10:43.557Z,94457.84
2022-09-23T05:13:09.922Z,94454.47
2022-09-23T05:15:36.236Z,94456.78
2022-09-23T05:18:02.587Z,94452.41
2022-09-23T05:20:28.900Z,94455.78
2022-09-23T05:22:56.063Z,94455.28
2022-09-23T05:25:25.390Z,94443.66
2022-09-23T05:27:52.308Z,94447.59
2022-09-23T05:30:18.625Z,94450.75
2022-09-23T05:32:45.524Z,94442.22
2022-09-23T05:35:11.929Z,94448.66
2022-09-23T05:37:38.278Z,94449.69
2022-09-23T05:40:05.401Z,94449.19
2022-09-23T05:42:31.897Z,94455.41
2022-09-23T05:44:58.254Z,94448.69
2022-09-23T05:47:24.605Z,94452.59
2022-09-23T05:49:59.722Z,94453.94
2022-09-23T05:52:27.465Z,94452.13
2022-09-23T05:54:53.856Z,94449.56
2022-09-23T05:57:21.345Z,94455.00
2022-09-23T05:59:47.726Z,94453.47
2022-09-23T06:02:15.098Z,94444.16
2022-09-23T06:04:41.623Z,94450.88
2022-09-23T06:07:08.610Z,94447.78
2022-09-23T06:09:36.789Z,94448.34
2022-09-23T06:12:04.820Z,94447.31
2022-09-23T06:14:31.204Z,94457.94
2022-09-23T06:16:57.536Z,94451.47
2022-09-23T06:19:23.925Z,94452.50
2022-09-23T06:21:50.289Z,94450.44
2022-09-23T06:24:19.982Z,94442.66
2022-09-23T06:26:49.019Z,94443.41
2022-09-23T06:29:15.377Z,94446.25
2022-09-23T06:31:41.990Z,94454.75
2022-09-23T06:34:14.185Z,94451.38
2022-09-23T06:36:44.843Z,94447.72
2022-09-23T06:39:13.298Z,94450.28
2022-09-23T06:41:39.649Z,94457.53
2022-09-23T06:44:13.727Z,94458.31
2022-09-23T06:46:40.246Z,94455.22
2022-09-23T06:49:06.821Z,94453.63
2022-09-23T06:51:33.715Z,94459.81
2022-09-23T06:54:00.174Z,94454.34
2022-09-23T06:56:26.664Z,94462.88
2022-09-23T06:58:53.282Z,94450.41
2022-09-23T07:01:20.083Z,94460.44
2022-09-23T07:03:50.020Z,94461.44
2022-09-23T07:06:17.132Z,94453.09
2022-09-23T07:08:46.735Z,94451.81
2022-09-23T07:11:13.776Z,94463.97
2022-09-23T07:13:42.029Z,94464.97
2022-09-23T07:16:09.838Z,94456.91
2022-09-23T07:18:37.526Z,94463.09
2022-09-23T07:21:15.425Z,94458.09
2022-09-23T07:23:47.002Z,94462.69
2022-09-23T07:26:14.861Z,94457.94
2022-09-23T07:28:41.337Z,94456.31
2022-09-23T07:31:13.803Z,94460.59
2022-09-23T07:33:44.124Z,94460.97
2022-09-23T07:36:13.859Z,94459.03
2022-09-23T07:38:45.209Z,94461.56
2022-09-23T07:41:14.642Z,94464.81
2022-09-23T07:43:41.227Z,94463.72
2022-09-23T07:46:16.204Z,94459.25
2022-09-23T07:48:43.690Z,94460.09
2022-09-23T07:51:12.822Z,94460.75
2022-09-23T07:53:39.521Z,94459.28
2022-09-23T07:56:06.572Z,94460.44
2022-09-23T07:58:34.360Z,94462.13
2022-09-23T08:01:06.034Z,94466.22
2022-09-23T08:03:32.774Z,94458.75
2022-09-23T08:06:11.882Z,94463.03
2022-09-23T08:08:40.598Z,94460.09
2022-09-23T08:11:10.150Z,94456.84
2022-09-23T08:13:37.067Z,94466.63
2022-09-23T08:16:04.423Z,94466.94
2022-09-23T08:18:30.928Z,94459.44
2022-09-23T08:20:57.287Z,94457.75
2022-09-23T08:23:23.786Z,94458.59
2022-09-23T08:25:59.501Z,94462.50
2022-09-23T08:28:26.797Z,94454.75
2022-09-23T08:30:53.160Z,94457.63
2022-09-23T08:33:23.340Z,94456.59
2022-09-23T08:35:50.329Z,94457.34
2022-09-23T08:38:16.689Z,94459.28
2022-09-23T08:40:47.352Z,94454.69
2022-09-23T08:43:34.662Z,94456.28
2022-09-23T08:46:05.185Z,94453.34
2022-09-23T08:48:38.494Z,94449.03
2022-09-23T08:51:10.840Z,94449.50
2022-09-23T08:53:37.715Z,94449.25
2022-09-23T08:56:10.744Z,94443.47
2022-09-23T08:58:47.239Z,94437.78
2022-09-23T09:01:26.173Z,94446.28
2022-09-23T09:03:58.415Z,94441.94
2022-09-23T09:06:27.766Z,94444.03
2022-09-23T09:08:59.022Z,94446.38
2022-09-23T09:11:31.164Z,94439.00
2022-09-23T09:14:05.780Z,94435.78
2022-09-23T09:16:59.864Z,94437.22
2022-09-23T09:19:55.368Z,94433.72
2022-09-23T09:22:28.227Z,94433.88
2022-09-23T09:25:02.712Z,94427.56
2022-09-23T09:27:29.366Z,94435.44
2022-09-23T09:29:56.763Z,94424.81
2022-09-23T09:32:38.354Z,94425.75
2022-09-23T09:35:23.820Z,94420.19
2022-09-23T09:37:50.356Z,94422.66
2022-09-23T09:40:17.271Z,94416.44
2022-09-23T09:42:47.803Z,94418.47
2022-09-23T09:45:14.104Z,94414.28
2022-09-23T09:47:46.482Z,94410.91
2022-09-23T09:50:20.526Z,94416.13
2022-09-23T09:52:48.352Z,94410.84
2022-09-23T09:55:14.658Z,94405.91
2022-09-23T09:57:45.213Z,94406.56
2022-09-23T10:00:35.934Z,94393.09
2022-09-23T10:03:14.409Z,94394.19
2022-09-23T10:05:43.747Z,94398.50
2022-09-23T10:08:32.303Z,94396.47
2022-09-23T10:10:58.612Z,94396.03
2022-09-23T10:13:29.298Z,94391.41
2022-09-23T10:15:57.871Z,94395.53
2022-09-23T10:18:31.929Z,94388.56
2022-09-23T10:21:17.078Z,94381.56
2022-09-23T10:23:58.230Z,94389.69
2022-09-23T10:26:32.678Z,94385.00
2022-09-23T10:29:03.270Z,94380.19
2022-09-23T10:31:32.231Z,94377.03
2022-09-23T10:34:27.485Z,94375.72
2022-09-23T10:37:03.141Z,94373.91
2022-09-23T10:39:48.067Z,94380.16
2022-09-23T10:43:08.446Z,94384.69
2022-09-23T10:45:57.838Z,94380.69
2022-09-23T10:48:51.853Z,94382.47
2022-09-23T10:51:40.373Z,94364.88
2022-09-23T10:54:28.042Z,94374.28
2022-09-23T10:57:01.314Z,94368.38
2022-09-23T10:59:43.497Z,94370.34
2022-09-23T11:02:34.509Z,94361.59
2022-09-23T11:05:34.923Z,94358.81
2022-09-23T11:08:27.244Z,94363.09
2022-09-23T11:11:19.117Z,94360.25
2022-09-23T11:14:15.748Z,94356.66
2022-09-23T11:16:53.889Z,94359.38
2022-09-23T11:19:34.145Z,94354.78
2022-09-23T11:22:26.024Z,94349.78
2022-09-23T11:25:28.025Z,94354.34
2022-09-23T11:28:15.693Z,94353.94
2022-09-23T11:31:09.879Z,94342.19
2022-09-23T11:33:52.693Z,94340.34
2022-09-23T11:36:30.329Z,94337.66
2022-09-23T11:39:01.143Z,94329.97
2022-09-23T11:41:36.038Z,94337.22
2022-09-23T11:44:21.134Z,94329.28
2022-09-23T11:46:57.533Z,94325.44
2022-09-23T11:49:36.617Z,94314.97
2022-09-23T11:52:10.139Z,94318.81
2022-09-23T11:54:56.738Z,94308.13
2022-09-23T11:57:42.106Z,94318.56
2022-09-23T12:00:24.177Z,94307.66
2022-09-23T12:03:09.277Z,94307.94
2022-09-23T12:06:12.523Z,94308.63
2022-09-23T12:08:39.104Z,94304.88
2022-09-23T12:11:22.003Z,94298.91
2022-09-23T12:13:57.741Z,94294.50
2022-09-23T12:16:44.246Z,94297.13
2022-09-23T12:19:22.770Z,94291.25
2022-09-23T12:22:08.249Z,94294.19
2022-09-23T12:25:30.871Z,94276.16
2022-09-23T12:28:03.614Z,94281.91
2022-09-23T12:30:33.985Z,94274.34
2022-09-23T12:33:22.378Z,94272.03
2022-09-23T12:35:48.901Z,94267.63
2022-09-23T12:38:22.852Z,94270.72
2022-09-23T12:40:51.066Z,94269.88
2022-09-23T12:43:29.728Z,94262.63
2022-09-23T12:46:28.365Z,94266.72
2022-09-23T12:48:57.958Z,94266.47
2022-09-23T12:51:48.581Z,94266.47
2022-09-23T12:54:22.722Z,94263.34
2022-09-23T12:56:51.797Z,94264.97
2022-09-23T12:59:30.405Z,94257.38
2022-09-23T13:01:57.936Z,94251.97
2022-09-23T13:04:53.115Z,94254.94
2022-09-23T13:07:29.908Z,94257.41
2022-09-23T13:10:05.661Z,94255.13
2022-09-23T13:12:38.827Z,94256.91
2022-09-23T13:15:16.541Z,94257.47
2022-09-23T13:17:43.030Z,94256.72
2022-09-23T13:20:21.503Z,94248.03
2022-09-23T13:22:51.814Z,94248.44
2022-09-23T13:25:32.506Z,94245.97
2022-09-23T13:28:01.973Z,94237.84
2022-09-23T13:30:28.514Z,94232.59
2022-09-23T13:33:21.338Z,94233.81
2022-09-23T13:35:55.926Z,94226.56
2022-09-23T13:38:26.461Z,94230.75
2022-09-23T13:40:59.895Z,94225.81
2022-09-23T13:43:36.502Z,94225.34
2022-09-23T13:46:14.053Z,94225.63
2022-09-23T13:48:43.407Z,94220.13
2022-09-23T13:51:12.162Z,94217.59
2022-09-23T13:53:38.853Z,94224.94
2022-09-23T13:56:15.745Z,94226.16
2022-09-23T13:58:43.293Z,94227.47
2022-09-23T14:01:22.077Z,94216.22
2022-09-23T14:03:48.530Z,94222.03
2022-09-23T14:06:16.291Z,94215.88
2022-09-23T14:08:50.655Z,94215.41
2022-09-23T14:11:19.098Z,94205.50
2022-09-23T14:13:47.107Z,94210.69
2022-09-23T14:16:15.993Z,94202.44
2022-09-23T14:18:48.271Z,94197.06
2022-09-23T14:21:35.653Z,94202.44
2022-09-23T14:24:17.074Z,94195.66
2022-09-23T14:26:48.340Z,94200.88
2022-09-23T14:29:35.870Z,94198.38
2022-09-23T14:32:07.559Z,94195.78
2022-09-23T14:34:53.542Z,94207.66
2022-09-23T14:37:56.851Z,94202.13
2022-09-23T14:40:29.477Z,94199.63
2022-09-23T14:43:04.754Z,94195.44
2022-09-23T14:45:37.370Z,94201.84
2022-09-23T14:48:22.731Z,94193.94
2022-09-23T14:50:58.042Z,94188.56
2022-09-23T14:53:51.860Z,94189.34
2022-09-23T14:56:24.115Z,94194.81
2022-09-23T14:58:59.715Z,94189.13
2022-09-23T15:01:26.078Z,94188.94
2022-09-23T15:03:53.359Z,94185.88
2022-09-23T15:06:22.944Z,94186.59
2022-09-23T15:08:50.986Z,94181.59
2022-09-23T15:11:18.020Z,94173.00
2022-09-23T15:13:49.317Z,94173.25
2022-09-23T15:16:16.548Z,94173.19
2022-09-23T15:18:45.951Z,94173.44
2022-09-23T15:21:19.298Z,94163.81
2022-09-23T15:23:54.207Z,94164.06
2022-09-23T15:26:23.130Z,94175.19
2022-09-23T15:28:51.951Z,94162.09
2022-09-23T15:31:20.086Z,94164.88
2022-09-23T15:33:47.911Z,94158.94
2022-09-23T15:36:18.458Z,94154.72
2022-09-23T15:38:46.056Z,94153.47
2022-09-23T15:41:14.175Z,94152.75
2022-09-23T15:43:44.209Z,94150.75
2022-09-23T15:46:27.979Z,94157.00
2022-09-23T15:49:05.305Z,94163.09
2022-09-23T15:51:31.881Z,94154.88
2022-09-23T15:53:58.452Z,94158.47
2022-09-23T15:56:26.941Z,94157.06
2022-09-23T15:58:53.309Z,94162.41
2022-09-23T16:01:28.010Z,94151.25
2022-09-23T16:03:55.582Z,94150.22
2022-09-23T16:06:22.168Z,94152.53
2022-09-23T16:08:49.167Z,94153.53
2022-09-23T16:11:21.785Z,94145.88
2022-09-23T16:13:48.131Z,94153.34
2022-09-23T16:16:14.634Z,94147.03
2022-09-23T16:18:43.692Z,94151.03
2022-09-23T16:21:13.662Z,94154.75
2022-09-23T16:23:43.613Z,94152.28
2022-09-23T16:26:15.994Z,94157.09
2022-09-23T16:28:43.834Z,94159.19
2022-09-23T16:31:11.777Z,94157.59
2022-09-23T16:33:38.514Z,94154.03
2022-09-23T16:36:09.306Z,94165.22
2022-09-23T16:38:35.818Z,94147.63
2022-09-23T16:41:02.924Z,94156.44
2022-09-23T16:43:39.203Z,94163.94
2022-09-23T16:46:12.102Z,94156.66
2022-09-23T16:48:40.766Z,94157.19
2022-09-23T16:51:08.795Z,94159.75
2022-09-23T16:53:35.961Z,94165.66
2022-09-23T16:56:09.427Z,94175.31
2022-09-23T16:58:37.372Z,94179.47
2022-09-23T17:01:23.523Z,94175.28
2022-09-23T17:03:50.305Z,94169.13
2022-09-23T17:06:19.239Z,94171.03
2022-09-23T17:08:51.019Z,94160.47
2022-09-23T17:11:17.637Z,94168.34
2022-09-23T17:13:44.495Z,94165.91
2022-09-23T17:16:21.549Z,94174.66
2022-09-23T17:18:47.982Z,94159.91
2022-09-23T17:21:14.342Z,94162.28
2022-09-23T17:23:41.150Z,94159.41
2022-09-23T17:26:09.767Z,94151.72
2022-09-23T17:28:36.328Z,94151.59
2022-09-23T17:31:05.040Z,94143.16
2022-09-23T17:33:33.318Z,94145.19
2022-09-23T17:36:02.552Z,94151.59
2022-09-23T17:38:29.666Z,94151.94
2022-09-23T17:40:59.025Z,94149.03
2022-09-23T17:43:25.748Z,94164.09
2022-09-23T17:45:54.412Z,94162.91
2022-09-23T17:48:22.297Z,94161.59
2022-09-23T17:50:55.723Z,94159.00
2022-09-23T17:53:23.003Z,94162.44
2022-09-23T17:56:00.862Z,94157.38
2022-09-23T17:58:29.407Z,94158.63
2022-09-23T18:00:56.338Z,94165.44
2022-09-23T18:03:27.427Z,94171.16
2022-09-23T18:05:54.162Z,94155.94
2022-09-23T18:08:21.031Z,94162.69
2022-09-23T18:10:47.406Z,94159.63
2022-09-23T18:13:13.799Z,94166.44
2022-09-23T18:15:40.365Z,94165.97
2022-09-23T18:18:07.146Z,94156.56
2022-09-23T18:20:33.840Z,94155.78
2022-09-23T18:23:00.171Z,94159.81
2022-09-23T18:25:39.182Z,94155.81
2022-09-23T18:28:06.268Z,94157.50
2022-09-23T18:30:33.364Z,94166.94
2022-09-23T18:32:59.891Z,94163.69
2022-09-23T18:35:26.430Z,94158.31
2022-09-23T18:37:52.785Z,94159.69
2022-09-23T18:40:19.305Z,94163.22
2022-09-23T18:42:45.668Z,94163.09
2022-09-23T18:45:12.086Z,94158.91
2022-09-23T18:47:56.871Z,94168.94
2022-09-23T18:50:43.018Z,94168.31
2022-09-23T18:53:10.332Z,94168.47
2022-09-23T18:55:37.097Z,94164.94
2022-09-23T18:58:03.684Z,94169.38
2022-09-23T19:00:30.232Z,94159.06
2022-09-23T19:02:56.718Z,94162.16
2022-09-23T19:05:23.317Z,94164.31
2022-09-23T19:07:49.695Z,94156.47
2022-09-23T19:10:16.360Z,94153.72
2022-09-23T19:12:42.677Z,94159.84
2022-09-23T19:15:09.274Z,94151.84
2022-09-23T19:17:35.713Z,94160.63
2022-09-23T19:20:02.183Z,94157.81
2022-09-23T19:22:30.326Z,94161.69
2022-09-23T19:24:56.689Z,94168.91
2022-09-23T19:27:23.389Z,94171.38
2022-09-23T19:29:50.173Z,94167.53
2022-09-23T19:32:16.657Z,94162.28
2022-09-23T19:34:44.167Z,94160.44
2022-09-23T19:37:10.507Z,94160.44
2022-09-23T19:39:37.480Z,94162.75
2022-09-23T19:42:03.955Z,94153.66
2022-09-23T19:44:30.384Z,94156.28
2022-09-23T19:46:57.561Z,94152.13
2022-09-23T19:49:25.505Z,94141.50
2022-09-23T19:51:55.001Z,94149.03
2022-09-23T19:54:21.335Z,94148.13
2022-09-23T19:56:49.562Z,94145.63
2022-09-23T19:59:18.826Z,94137.31
2022-09-23T20:01:47.668Z,94143.34
2022-09-23T20:04:15.549Z,94142.56
2022-09-23T20:06:41.918Z,94138.41
2022-09-23T20:09:08.358Z,94136.41
2022-09-23T20:11:35.848Z,94138.53
2022-09-23T20:14:03.814Z,94128.09
2022-09-23T20:16:33.215Z,94132.69
2022-09-23T20:19:00.598Z,94128.84
2022-09-23T20:21:28.982Z,94134.41
2022-09-23T20:23:56.162Z,94125.31
2022-09-23T20:26:41.361Z,94130.25
2022-09-23T20:29:08.838Z,94120.34
2022-09-23T20:31:35.367Z,94125.47
2022-09-23T20:34:05.464Z,94120.72
2022-09-23T20:36:32.899Z,94110.25
2022-09-23T20:39:01.294Z,94106.09
2022-09-23T20:41:29.723Z,94112.25
2022-09-23T20:43:59.326Z,94106.66
2022-09-23T20:46:27.072Z,94109.88
2022-09-23T20:48:54.261Z,94104.19
2022-09-23T20:51:20.870Z,94113.88
2022-09-23T20:53:54.150Z,94112.78
2022-09-23T20:56:21.263Z,94102.16
2022-09-23T20:58:50.338Z,94103.88
2022-09-23T21:01:17.224Z,94105.13
2022-09-23T21:03:46.011Z,94094.34
2022-09-23T21:06:14.515Z,94092.97
2022-09-23T21:08:42.128Z,94083.28
2022-09-23T21:11:14.854Z,94074.97
2022-09-23T21:13:49.071Z,94084.19
2022-09-23T21:16:17.146Z,94085.41
2022-09-23T21:18:44.544Z,94085.25
2022-09-23T21:21:12.148Z,94094.19
2022-09-23T21:23:39.074Z,94080.34
2022-09-23T21:26:13.729Z,94078.19
2022-09-23T21:28:42.241Z,94094.19
2022-09-23T21:31:11.705Z,94086.31
2022-09-23T21:33:38.120Z,94096.88
2022-09-23T21:36:06.877Z,94091.97
2022-09-23T21:38:37.083Z,94085.97
2022-09-23T21:41:07.419Z,94087.06
2022-09-23T21:43:37.212Z,94095.97
2022-09-23T21:46:06.188Z,94090.72
2022-09-23T21:48:37.666Z,94095.50
2022-09-23T21:51:07.727Z,94096.69
2022-09-23T21:53:36.710Z,94090.25
2022-09-23T21:56:20.694Z,94090.84
2022-09-23T21:58:48.024Z,94091.13
2022-09-23T22:01:15.845Z,94084.97
2022-09-23T22:03:43.524Z,94090.94
2022-09-23T22:06:15.083Z,94100.44
2022-09-23T22:08:43.285Z,94097.69
2022-09-23T22:11:31.314Z,94092.75
2022-09-23T22:13:58.853Z,94092.44
2022-09-23T22:16:26.111Z,94098.28
2022-09-23T22:18:55.148Z,94096.91
2022-09-23T22:21:23.017Z,94100.44
2022-09-23T22:23:52.239Z,94086.91
2022-09-23T22:26:18.585Z,94091.06
2022-09-23T22:29:03.666Z,94077.44
2022-09-23T22:31:48.436Z,94073.72
2022-09-23T22:34:37.614Z,94085.84
2022-09-23T22:37:01.710Z,94088.88
2022-09-23T22:39:29.801Z,94090.41
2022-09-23T22:41:58.322Z,94085.16
2022-09-23T22:44:25.512Z,94094.53
2022-09-23T22:46:51.990Z,94093.47
2022-09-23T22:49:21.102Z,94088.25
2022-09-23T22:51:47.485Z,94084.25
2022-09-23T22:54:13.969Z,94081.38
2022-09-23T22:56:40.329Z,94073.81
2022-09-23T22:59:08.523Z,94081.66
2022-09-23T23:01:35.439Z,94084.56
2022-09-23T23:04:02.495Z,94087.00
2022-09-23T23:06:35.775Z,94080.56
2022-09-23T23:09:16.963Z,94085.31
2022-09-23T23:11:44.812Z,94066.22
2022-09-23T23:14:16.862Z,94072.03
2022-09-23T23:16:45.101Z,94067.41
2022-09-23T23:19:14.682Z,94066.16
2022-09-23T23:21:44.663Z,94061.84
2022-09-23T23:24:15.640Z,94067.66
2022-09-23T23:26:42.471Z,94066.69
2022-09-23T23:29:11.670Z,94071.00
2022-09-23T23:31:38.475Z,94074.66
2022-09-23T23:34:08.211Z,94070.22
2022-09-23T23:36:34.673Z,94067.59
2022-09-23T23:39:01.098Z,94068.97
2022-09-23T23:41:28.299Z,94063.75
2022-09-23T23:43:56.997Z,94060.38
2022-09-23T23:46:26.324Z,94064.81
2022-09-23T23:48:54.146Z,94063.38
2022-09-23T23:51:21.190Z,94058.28
2022-09-23T23:53:48.207Z,94054.59
2022-09-23T23:56:19.550Z,94045.34
2022-09-23T23:58:45.908Z,94052.72
